Time;durP1;ratioP1;P1;durP2;ratioP2;P2;SDS_P1;SDS_P2;PMS_P1;PMS_P2;Temp;Humidity;BMP_temperature;BMP_pressure;BME280_temperature;BME280_humidity;BME280_pressure;Samples;Min_cycle;Max_cycle;Signal;HPM_P1;HPM_P2
2022/06/14 00:02:54;;;;;;;0.30;0.30;;;;;;;9.40;100.00;101092.91;5073740;28;20389;-74
2022/06/14 00:05:19;;;;;;;0.00;0.00;;;;;;;9.37;100.00;101098.91;5073295;28;20182;-72
2022/06/14 00:07:44;;;;;;;0.47;0.33;;;;;;;9.37;100.00;101098.09;5072587;28;20182;-72
2022/06/14 00:10:10;;;;;;;0.00;0.00;;;;;;;9.36;100.00;101091.00;5073382;28;20228;-72
2022/06/14 00:12:36;;;;;;;0.00;0.00;;;;;;;9.41;100.00;101101.91;5073264;28;20202;-72
2022/06/14 00:15:02;;;;;;;0.03;0.03;;;;;;;9.39;100.00;101106.78;5073189;28;20230;-73
2022/06/14 00:17:27;;;;;;;0.00;0.00;;;;;;;9.28;100.00;101113.47;5073077;28;20174;-72
2022/06/14 00:19:52;;;;;;;0.00;0.00;;;;;;;9.18;100.00;101108.91;5072845;28;20228;-73
2022/06/14 00:22:18;;;;;;;0.00;0.00;;;;;;;9.18;100.00;101109.72;5073216;28;20178;-73
2022/06/14 00:24:43;;;;;;;0.07;0.07;;;;;;;9.09;100.00;101113.31;5071596;28;20548;-72
2022/06/14 00:27:09;;;;;;;0.20;0.10;;;;;;;9.08;100.00;101111.69;5072582;28;20222;-72
2022/06/14 00:29:34;;;;;;;0.00;0.00;;;;;;;9.10;100.00;101114.94;5072801;28;20393;-76
2022/06/14 00:31:59;;;;;;;0.23;0.23;;;;;;;9.14;100.00;101105.13;5072839;28;20311;-72
2022/06/14 00:34:25;;;;;;;0.07;0.07;;;;;;;9.18;100.00;101106.19;5071484;28;20573;-74
2022/06/14 00:36:53;;;;;;;0.00;0.00;;;;;;;9.14;100.00;101102.41;5072812;28;20642;-72
2022/06/14 00:39:18;;;;;;;0.67;0.67;;;;;;;9.16;100.00;101103.75;5072437;28;20183;-73
2022/06/14 00:41:47;;;;;;;1.33;0.60;;;;;;;9.08;100.00;101109.78;5072780;28;20179;-72
2022/06/14 00:44:19;;;;;;;0.20;0.20;;;;;;;9.09;100.00;101107.88;5071888;28;20171;-73
2022/06/14 00:46:55;;;;;;;4.07;2.47;;;;;;;9.11;100.00;101116.56;5072322;28;20278;-73
2022/06/14 00:49:33;;;;;;;0.20;0.20;;;;;;;9.07;100.00;101118.25;5072110;28;20652;-75
2022/06/14 00:52:02;;;;;;;0.30;0.23;;;;;;;9.07;100.00;101120.97;5072563;28;20182;-73
2022/06/14 00:54:37;;;;;;;0.20;0.03;;;;;;;9.10;100.00;101109.50;5072429;28;20727;-74
2022/06/14 00:57:40;;;;;;;0.00;0.00;;;;;;;9.11;100.00;101119.31;5072246;28;20181;-74
2022/06/14 01:00:05;;;;;;;5.53;0.30;;;;;;;9.10;100.00;101123.13;5038141;28;20234;-73
2022/06/14 01:02:35;;;;;;;0.33;0.33;;;;;;;9.13;100.00;101117.13;5072399;28;20198;-73
2022/06/14 01:05:05;;;;;;;0.00;0.00;;;;;;;9.28;100.00;101117.00;5070916;28;20551;-73
2022/06/14 01:07:40;;;;;;;0.27;0.23;;;;;;;9.34;100.00;101104.94;5071447;28;20254;-75
2022/06/14 01:10:06;;;;;;;0.60;0.60;;;;;;;9.48;100.00;101108.63;5072515;28;20185;-72
2022/06/14 01:12:35;;;;;;;0.63;0.63;;;;;;;9.61;100.00;101109.06;5072253;28;20179;-73
2022/06/14 01:15:16;;;;;;;0.10;0.10;;;;;;;9.61;100.00;101103.59;5071962;28;20221;-72
2022/06/14 01:17:47;;;;;;;0.00;0.00;;;;;;;9.58;100.00;101102.25;5071391;28;20261;-73
2022/06/14 01:20:17;;;;;;;0.10;0.10;;;;;;;9.58;100.00;101106.91;5071975;28;20282;-73
2022/06/14 01:22:43;;;;;;;0.37;0.37;;;;;;;9.52;100.00;101106.94;5072201;28;20214;-74
2022/06/14 01:25:09;;;;;;;10.47;0.63;;;;;;;9.39;100.00;101102.16;5069014;28;20171;-72
2022/06/14 01:27:37;;;;;;;1.93;1.80;;;;;;;9.32;100.00;101104.41;5071303;28;20178;-73
2022/06/14 01:30:15;;;;;;;0.30;0.30;;;;;;;9.31;100.00;101104.69;5071614;28;20183;-73
2022/06/14 01:32:58;;;;;;;0.53;0.53;;;;;;;9.26;100.00;101111.03;5072002;28;20205;-73
2022/06/14 01:35:27;;;;;;;0.20;0.20;;;;;;;9.28;100.00;101108.00;5071617;28;20210;-72
2022/06/14 01:37:54;;;;;;;0.00;0.00;;;;;;;9.28;100.00;101108.00;5070982;28;20235;-73
2022/06/14 01:40:57;;;;;;;0.00;0.00;;;;;;;9.19;100.00;101108.63;5071436;28;20657;-73
2022/06/14 01:43:47;;;;;;;0.10;0.10;;;;;;;9.15;100.00;101114.94;5071752;28;20181;-72
2022/06/14 01:46:23;;;;;;;0.00;0.00;;;;;;;9.20;100.00;101112.16;5071372;28;20181;-72
2022/06/14 01:48:54;;;;;;;0.00;0.00;;;;;;;9.09;100.00;101116.06;5070802;28;20236;-74
2022/06/14 01:54:12;;;;;;;25.13;0.63;;;;;;;8.83;100.00;101097.19;5071307;28;20209;-73
2022/06/14 01:56:52;;;;;;;0.47;0.47;;;;;;;8.90;100.00;101102.31;5069914;28;20181;-73
2022/06/14 01:59:35;;;;;;;0.00;0.00;;;;;;;8.89;100.00;101106.13;5070679;28;20722;-73
2022/06/14 02:02:06;;;;;;;0.00;0.00;;;;;;;8.85;100.00;101105.91;5071176;28;20190;-72
2022/06/14 02:05:02;;;;;;;0.00;0.00;;;;;;;8.77;100.00;101108.41;5071085;28;20175;-72
2022/06/14 02:08:01;;;;;;;0.00;0.00;;;;;;;8.81;100.00;101099.34;5071002;28;20227;-72
2022/06/14 02:10:40;;;;;;;0.00;0.00;;;;;;;8.97;100.00;101112.88;5071074;28;20265;-73
2022/06/14 02:13:27;;;;;;;0.00;0.00;;;;;;;9.01;100.00;101109.31;5071800;28;20213;-75
2022/06/14 02:16:08;;;;;;;0.00;0.00;;;;;;;9.13;100.00;101111.69;5071415;28;20206;-72
2022/06/14 02:18:36;;;;;;;0.00;0.00;;;;;;;9.19;100.00;101105.06;5070282;28;20178;-73
2022/06/14 02:21:10;;;;;;;0.00;0.00;;;;;;;9.13;100.00;101104.31;5070948;28;20186;-76
2022/06/14 02:23:45;;;;;;;0.00;0.00;;;;;;;9.06;100.00;101103.81;5070674;28;20271;-72
2022/06/14 02:26:19;;;;;;;0.00;0.00;;;;;;;9.05;100.00;101096.75;5070981;28;20182;-73
2022/06/14 02:28:51;;;;;;;0.00;0.00;;;;;;;9.04;100.00;101092.38;5070237;28;20174;-73
2022/06/14 02:31:24;;;;;;;0.00;0.00;;;;;;;9.03;100.00;101106.31;5070882;28;20171;-72
2022/06/14 02:34:05;;;;;;;0.00;0.00;;;;;;;8.98;100.00;101107.16;5070617;28;20656;-74
2022/06/14 02:37:04;;;;;;;0.00;0.00;;;;;;;8.94;100.00;101122.44;5070587;28;20178;-76
2022/06/14 02:39:35;;;;;;;0.00;0.00;;;;;;;8.90;100.00;101124.09;5070477;28;20614;-73
2022/06/14 02:42:11;;;;;;;0.00;0.00;;;;;;;8.81;100.00;101120.34;5070591;28;20178;-75
2022/06/14 02:44:47;;;;;;;0.00;0.00;;;;;;;8.84;100.00;101119.81;5070468;28;20637;-72
2022/06/14 02:47:31;;;;;;;0.00;0.00;;;;;;;8.89;100.00;101120.56;5070171;28;20194;-74
2022/06/14 02:50:08;;;;;;;0.00;0.00;;;;;;;8.91;100.00;101118.38;5070606;28;20257;-73
2022/06/14 02:52:45;;;;;;;0.00;0.00;;;;;;;8.91;100.00;101129.28;5070508;28;20205;-73
2022/06/14 02:55:17;;;;;;;0.00;0.00;;;;;;;8.95;100.00;101132.22;5070277;28;20267;-72
2022/06/14 02:58:01;;;;;;;0.00;0.00;;;;;;;9.02;100.00;101126.47;5069767;28;20564;-72
2022/06/14 03:00:34;;;;;;;0.00;0.00;;;;;;;9.02;100.00;101132.75;5070213;28;20287;-72
2022/06/14 03:03:07;;;;;;;0.00;0.00;;;;;;;8.86;100.00;101128.50;5070328;28;20190;-72
2022/06/14 03:05:41;;;;;;;0.10;0.10;;;;;;;8.59;100.00;101129.75;5070097;28;20183;-72
2022/06/14 03:08:27;;;;;;;4.17;0.90;;;;;;;8.53;100.00;101119.97;5069150;28;20219;-73
2022/06/14 03:10:52;;;;;;;0.87;0.87;;;;;;;8.45;100.00;101125.19;5070197;28;20265;-72
2022/06/14 03:13:38;;;;;;;0.53;0.53;;;;;;;8.51;100.00;101113.19;5070563;28;20551;-72
2022/06/14 03:16:34;;;;;;;0.10;0.00;;;;;;;8.72;100.00;101122.06;5070121;28;20170;-72
2022/06/14 03:19:19;;;;;;;0.30;0.27;;;;;;;8.86;100.00;101121.13;5069626;28;20194;-72
2022/06/14 03:21:57;;;;;;;0.00;0.00;;;;;;;8.89;100.00;101128.75;5070159;28;20182;-72
2022/06/14 03:24:47;;;;;;;0.00;0.00;;;;;;;8.93;100.00;101118.91;5068643;28;20178;-72
2022/06/14 03:27:26;;;;;;;0.00;0.00;;;;;;;8.99;100.00;101121.59;5069886;28;20178;-72
2022/06/14 03:29:59;;;;;;;0.53;0.40;;;;;;;9.00;100.00;101117.78;5069437;28;20179;-71
2022/06/14 03:32:37;;;;;;;0.17;0.10;;;;;;;9.04;100.00;101118.84;5070080;28;20201;-72
2022/06/14 03:35:11;;;;;;;0.00;0.00;;;;;;;9.13;100.00;101122.59;5069878;28;20260;-72
2022/06/14 03:37:37;;;;;;;0.00;0.00;;;;;;;9.20;100.00;101123.06;5069120;28;20178;-72
2022/06/14 03:40:09;;;;;;;0.00;0.00;;;;;;;9.33;100.00;101127.84;5069956;28;20163;-73
2022/06/14 03:42:36;;;;;;;0.00;0.00;;;;;;;9.44;100.00;101126.66;5069887;28;20175;-72
2022/06/14 03:45:03;;;;;;;0.00;0.00;;;;;;;9.49;100.00;101120.34;5069923;28;20167;-73
2022/06/14 03:47:30;;;;;;;0.00;0.00;;;;;;;9.39;100.00;101115.78;5069024;28;20186;-76
2022/06/14 03:50:26;;;;;;;0.00;0.00;;;;;;;9.47;100.00;101123.38;5069849;28;20183;-75
2022/06/14 03:53:25;;;;;;;0.00;0.00;;;;;;;9.70;100.00;101121.78;5068453;28;20174;-75
2022/06/14 03:56:09;;;;;;;0.00;0.00;;;;;;;9.90;100.00;101139.03;5069838;28;20313;-73
2022/06/14 03:59:05;;;;;;;0.00;0.00;;;;;;;10.06;100.00;101144.03;5069015;28;20182;-73
2022/06/14 04:01:41;;;;;;;0.00;0.00;;;;;;;9.98;100.00;101138.38;5070026;28;20171;-73
2022/06/14 04:04:21;;;;;;;0.00;0.00;;;;;;;10.23;100.00;101145.50;5069685;28;20202;-73
2022/06/14 04:07:04;;;;;;;0.00;0.00;;;;;;;10.21;100.00;101143.06;5069318;28;20170;-72
2022/06/14 04:09:45;;;;;;;0.00;0.00;;;;;;;10.20;99.84;101143.34;5069809;28;20674;-73
2022/06/14 04:12:19;;;;;;;0.00;0.00;;;;;;;10.26;98.48;101142.19;5069769;28;20185;-72
2022/06/14 04:15:00;;;;;;;0.00;0.00;;;;;;;10.23;97.60;101149.03;5069499;28;20561;-72
2022/06/14 04:17:44;;;;;;;0.00;0.00;;;;;;;10.23;97.46;101140.03;5069606;28;20177;-72
2022/06/14 04:20:23;;;;;;;0.00;0.00;;;;;;;10.28;97.36;101142.72;5072044;28;20174;-73
2022/06/14 04:22:56;;;;;;;0.00;0.00;;;;;;;10.21;98.69;101139.50;5073112;28;20162;-73
2022/06/14 04:25:43;;;;;;;0.00;0.00;;;;;;;10.02;100.00;101131.25;5072144;28;20186;-72
2022/06/14 04:28:20;;;;;;;0.00;0.00;;;;;;;9.99;100.00;101132.66;5072348;28;20270;-73
2022/06/14 04:30:55;;;;;;;0.00;0.00;;;;;;;9.80;100.00;101123.56;5073034;28;20269;-75
2022/06/14 04:33:28;;;;;;;0.00;0.00;;;;;;;9.73;100.00;101128.56;5072932;28;20174;-72
2022/06/14 04:36:10;;;;;;;0.10;0.10;;;;;;;9.67;100.00;101133.25;5072892;28;20182;-73
2022/06/14 04:38:40;;;;;;;0.00;0.00;;;;;;;9.74;100.00;101136.47;5072153;28;20261;-73
2022/06/14 04:41:15;;;;;;;0.00;0.00;;;;;;;9.73;100.00;101123.13;5072904;28;20209;-72
2022/06/14 04:43:46;;;;;;;0.00;0.00;;;;;;;9.69;100.00;101122.03;5072956;28;20209;-72
2022/06/14 04:46:14;;;;;;;0.00;0.00;;;;;;;9.76;100.00;101128.81;5072625;28;20626;-73
2022/06/14 04:49:02;;;;;;;0.00;0.00;;;;;;;9.88;100.00;101139.34;5071904;28;20167;-72
2022/06/14 04:51:55;;;;;;;0.07;0.07;;;;;;;10.05;100.00;101138.88;5072589;28;20622;-72
2022/06/14 04:54:23;;;;;;;0.20;0.20;;;;;;;10.33;100.00;101148.13;5071826;28;20219;-73
2022/06/14 04:57:00;;;;;;;0.00;0.00;;;;;;;10.59;99.88;101157.63;5072290;28;20588;-73
2022/06/14 04:59:47;;;;;;;0.00;0.00;;;;;;;10.76;98.38;101157.09;5072097;28;20257;-73
2022/06/14 05:02:31;;;;;;;0.00;0.00;;;;;;;10.88;96.85;101162.13;5072563;28;20182;-72
2022/06/14 05:05:03;;;;;;;0.00;0.00;;;;;;;10.88;95.50;101156.69;5072391;28;20171;-73
2022/06/14 05:07:46;;;;;;;0.00;0.00;;;;;;;10.76;96.93;101145.38;5071714;28;20289;-73
2022/06/14 05:10:18;;;;;;;0.00;0.00;;;;;;;10.30;98.29;101145.97;5072264;28;20530;-74
2022/06/14 05:12:59;;;;;;;0.00;0.00;;;;;;;10.44;100.00;101149.63;5072149;28;20171;-73
2022/06/14 05:15:32;;;;;;;0.00;0.00;;;;;;;10.63;100.00;101155.91;5072595;28;20681;-73
2022/06/14 05:18:07;;;;;;;0.00;0.00;;;;;;;10.76;100.00;101159.84;5071264;28;20656;-74
2022/06/14 05:20:44;;;;;;;0.00;0.00;;;;;;;10.94;98.02;101169.16;5072012;28;20216;-73
2022/06/14 05:23:21;;;;;;;0.00;0.00;;;;;;;11.04;97.92;101158.06;5072097;28;20645;-72
2022/06/14 05:26:24;;;;;;;0.00;0.00;;;;;;;11.06;96.82;101155.03;5070321;28;20713;-73
2022/06/14 05:29:03;;;;;;;0.00;0.00;;;;;;;11.13;96.96;101164.47;5071349;28;20626;-72
2022/06/14 05:31:38;;;;;;;0.00;0.00;;;;;;;11.14;97.55;101162.53;5071755;28;20618;-72
2022/06/14 05:34:42;;;;;;;0.00;0.00;;;;;;;11.19;100.00;101163.28;5071542;28;20241;-73
2022/06/14 05:37:18;;;;;;;0.00;0.00;;;;;;;11.22;100.00;101161.88;5071540;28;20182;-76
2022/06/14 05:39:54;;;;;;;0.00;0.00;;;;;;;11.01;100.00;101169.59;5071236;28;20190;-72
2022/06/14 05:42:25;;;;;;;0.00;0.00;;;;;;;10.88;100.00;101173.06;5071706;28;20355;-72
2022/06/14 05:44:57;;;;;;;0.00;0.00;;;;;;;10.88;100.00;101168.41;5071494;28;20187;-73
2022/06/14 05:47:38;;;;;;;0.00;0.00;;;;;;;10.92;100.00;101172.19;5071295;28;20189;-72
2022/06/14 05:50:16;;;;;;;0.00;0.00;;;;;;;11.21;100.00;101182.97;5071344;28;20542;-73
2022/06/14 05:52:48;;;;;;;0.00;0.00;;;;;;;11.48;100.00;101178.69;5070027;28;20178;-72
2022/06/14 05:55:38;;;;;;;0.00;0.00;;;;;;;11.70;99.98;101175.31;5071804;28;20210;-73
2022/06/14 05:58:16;;;;;;;0.00;0.00;;;;;;;11.86;98.24;101172.03;5041016;28;20191;-73
2022/06/14 06:00:46;;;;;;;0.00;0.00;;;;;;;12.13;97.17;101178.63;5071703;28;20171;-73
2022/06/14 06:03:27;;;;;;;0.00;0.00;;;;;;;12.24;94.92;101176.53;5071257;28;20178;-73
2022/06/14 06:06:08;;;;;;;0.00;0.00;;;;;;;12.27;93.69;101175.91;5071144;28;20633;-73
2022/06/14 06:08:41;;;;;;;0.00;0.00;;;;;;;12.30;93.60;101178.88;5070587;28;20517;-73
2022/06/14 06:11:48;;;;;;;0.00;0.00;;;;;;;12.35;93.64;101188.91;5071100;28;20185;-73
2022/06/14 06:14:23;;;;;;;0.10;0.10;;;;;;;12.28;93.24;101191.22;5008613;28;20212;-73
2022/06/14 06:17:03;;;;;;;0.10;0.10;;;;;;;12.26;92.89;101187.97;5064455;28;20295;-72
2022/06/14 06:19:34;;;;;;;0.10;0.10;;;;;;;12.24;93.01;101198.44;5070572;28;20171;-73
2022/06/14 06:22:18;;;;;;;0.20;0.20;;;;;;;12.29;94.09;101188.19;5070767;28;20253;-73
2022/06/14 06:24:53;;;;;;;0.20;0.20;;;;;;;12.42;95.21;101189.28;5069278;28;20174;-72
2022/06/14 06:27:27;;;;;;;0.00;0.00;;;;;;;12.51;94.88;101192.94;5070514;28;20166;-73
2022/06/14 06:30:01;;;;;;;0.10;0.10;;;;;;;12.63;94.08;101197.94;5070411;28;20599;-73
2022/06/14 06:32:31;;;;;;;0.00;0.00;;;;;;;12.67;93.75;101199.72;5069590;28;20181;-73
2022/06/14 06:34:57;;;;;;;0.23;0.23;;;;;;;12.66;92.44;101189.09;5070818;28;20202;-73
2022/06/14 06:37:34;;;;;;;0.10;0.10;;;;;;;12.69;92.87;101202.16;5070577;28;20630;-73
2022/06/14 06:40:17;;;;;;;0.30;0.30;;;;;;;12.69;93.94;101196.69;5070699;28;20249;-73
2022/06/14 06:42:55;;;;;;;0.00;0.00;;;;;;;12.70;94.16;101198.31;5070009;28;20228;-75
2022/06/14 06:45:29;;;;;;;1.70;0.63;;;;;;;12.76;92.66;101200.66;5070649;28;20179;-73
2022/06/14 06:48:05;;;;;;;0.13;0.10;;;;;;;12.90;92.31;101202.56;5069644;28;20414;-73
2022/06/14 06:50:42;;;;;;;2.83;1.17;;;;;;;12.97;90.22;101201.00;5070525;28;20228;-72
2022/06/14 06:53:19;;;;;;;1.83;1.03;;;;;;;13.01;89.71;101192.94;5070488;28;20170;-73
2022/06/14 06:55:58;;;;;;;0.13;0.13;;;;;;;13.00;88.01;101192.16;5070375;28;20207;-72
2022/06/14 06:58:36;;;;;;;0.67;0.67;;;;;;;13.08;88.55;101196.91;5069665;28;20166;-72
2022/06/14 07:01:06;;;;;;;0.27;0.27;;;;;;;13.13;88.20;101195.97;5070401;28;20186;-73
2022/06/14 07:03:48;;;;;;;5.53;0.73;;;;;;;13.18;87.14;101203.28;5070263;28;20261;-73
2022/06/14 07:06:28;;;;;;;0.47;0.47;;;;;;;13.26;86.59;101191.59;5070207;28;20629;-73
2022/06/14 07:08:58;;;;;;;0.00;0.00;;;;;;;13.33;84.72;101197.47;5069706;28;20173;-73
2022/06/14 07:11:30;;;;;;;0.00;0.00;;;;;;;13.58;84.50;101204.25;5070273;28;20558;-74
2022/06/14 07:14:01;;;;;;;0.60;0.47;;;;;;;13.72;82.21;101199.50;5070140;28;20273;-74
2022/06/14 07:16:55;;;;;;;0.37;0.30;;;;;;;13.88;82.30;101202.66;5070161;28;20181;-73
2022/06/14 07:19:39;;;;;;;0.00;0.00;;;;;;;13.96;82.57;101196.41;5069773;28;20313;-72
2022/06/14 07:22:23;;;;;;;0.23;0.20;;;;;;;14.08;82.27;101199.38;5070105;28;20170;-74
2022/06/14 07:25:16;;;;;;;0.63;0.63;;;;;;;14.17;81.07;101196.66;5068917;28;20439;-73
2022/06/14 07:27:53;;;;;;;0.20;0.20;;;;;;;14.08;80.18;101190.31;5069444;28;20190;-72
2022/06/14 07:30:27;;;;;;;0.00;0.00;;;;;;;13.85;78.47;101192.31;5070350;28;20188;-72
2022/06/14 07:32:56;;;;;;;0.00;0.00;;;;;;;13.84;78.93;101196.97;5070006;28;20174;-72
2022/06/14 07:35:33;;;;;;;0.00;0.00;;;;;;;13.95;79.14;101195.59;5069917;28;20199;-73
2022/06/14 07:38:05;;;;;;;0.00;0.00;;;;;;;14.00;77.87;101183.66;5069412;28;20181;-73
2022/06/14 07:41:03;;;;;;;0.00;0.00;;;;;;;14.02;77.22;101197.88;5070005;28;20548;-73
2022/06/14 07:43:49;;;;;;;0.10;0.10;;;;;;;14.08;78.26;101201.31;5070214;28;20265;-72
2022/06/14 07:46:27;;;;;;;0.00;0.00;;;;;;;13.96;76.49;101193.66;5069497;28;20599;-73
2022/06/14 07:49:10;;;;;;;0.40;0.40;;;;;;;13.87;77.54;101190.84;5069123;28;20805;-73
2022/06/14 07:51:50;;;;;;;0.50;0.50;;;;;;;13.87;75.21;101192.78;5069833;28;20175;-73
2022/06/14 07:54:31;;;;;;;2.00;1.90;;;;;;;14.12;74.80;101185.81;5072112;28;20552;-73
2022/06/14 07:57:07;;;;;;;0.07;0.07;;;;;;;14.21;72.96;101198.47;5073322;28;20246;-73
2022/06/14 07:59:40;;;;;;;0.00;0.00;;;;;;;14.15;72.14;101196.97;5073242;28;20189;-72
2022/06/14 08:02:20;;;;;;;1.00;0.30;;;;;;;14.22;71.59;101197.34;5073432;28;20179;-74
2022/06/14 08:04:53;;;;;;;0.37;0.23;;;;;;;14.20;71.92;101196.03;5073412;28;20174;-72
2022/06/14 08:07:19;;;;;;;0.00;0.00;;;;;;;14.33;71.56;101197.06;5073579;28;20189;-72
2022/06/14 08:09:51;;;;;;;0.20;0.20;;;;;;;14.43;71.03;101196.75;5072845;28;20178;-73
2022/06/14 08:12:22;;;;;;;0.00;0.00;;;;;;;14.54;71.51;101187.94;5073413;28;20179;-73
2022/06/14 08:14:53;;;;;;;0.83;0.57;;;;;;;14.57;69.74;101189.22;5073539;28;20206;-73
2022/06/14 08:17:43;;;;;;;0.67;0.43;;;;;;;14.64;70.34;101186.03;5073171;28;20401;-72
2022/06/14 08:20:26;;;;;;;0.23;0.23;;;;;;;14.49;69.52;101195.53;5073196;28;20178;-74
2022/06/14 08:22:58;;;;;;;0.00;0.00;;;;;;;14.60;70.49;101183.06;5073158;28;20174;-74
2022/06/14 08:25:29;;;;;;;0.50;0.50;;;;;;;14.75;70.53;101184.56;5071662;28;20175;-72
2022/06/14 08:28:11;;;;;;;0.67;0.67;;;;;;;14.81;70.05;101186.84;5072132;28;20182;-72
2022/06/14 08:30:50;;;;;;;0.00;0.00;;;;;;;15.12;70.54;101189.47;5072734;28;20175;-74
2022/06/14 08:33:46;;;;;;;0.27;0.27;;;;;;;15.27;67.79;101193.66;5073268;28;20186;-72
2022/06/14 08:36:20;;;;;;;0.00;0.00;;;;;;;15.32;67.56;101182.47;5072719;28;20171;-72
2022/06/14 08:38:54;;;;;;;19.07;0.83;;;;;;;15.45;68.45;101184.25;5072260;28;20186;-72
2022/06/14 08:41:28;;;;;;;2.87;0.63;;;;;;;15.47;66.24;101181.97;5072895;28;20617;-72
2022/06/14 08:44:01;;;;;;;0.67;0.67;;;;;;;15.63;66.91;101184.28;5072811;28;20174;-73
2022/06/14 08:46:41;;;;;;;0.10;0.10;;;;;;;15.75;66.24;101187.97;5071469;28;20522;-72
2022/06/14 08:49:44;;;;;;;0.00;0.00;;;;;;;15.99;64.26;101175.56;5072554;28;20229;-73
2022/06/14 08:52:35;;;;;;;0.27;0.27;;;;;;;16.26;64.84;101188.13;5048448;28;20672;-75
2022/06/14 08:55:16;;;;;;;0.00;0.00;;;;;;;15.97;64.03;101184.19;5073040;28;20190;-72
2022/06/14 08:58:00;;;;;;;0.07;0.07;;;;;;;16.05;65.31;101199.06;5072682;28;20171;-73
2022/06/14 09:00:41;;;;;;;0.10;0.10;;;;;;;15.98;63.74;101179.47;5072464;28;20285;-73
2022/06/14 09:03:12;;;;;;;1.60;1.50;;;;;;;15.89;63.10;101181.44;5072826;28;20162;-72
2022/06/14 09:06:01;;;;;;;0.00;0.00;;;;;;;15.71;65.27;101184.25;5071748;28;20189;-73
2022/06/14 09:08:40;;;;;;;0.00;0.00;;;;;;;15.60;65.60;101184.91;5071821;28;20201;-72
2022/06/14 09:11:18;;;;;;;0.00;0.00;;;;;;;15.43;65.24;101189.28;5072492;28;20799;-75
2022/06/14 09:14:20;;;;;;;0.00;0.00;;;;;;;15.68;66.10;101184.09;5072058;28;20181;-73
2022/06/14 09:16:54;;;;;;;0.00;0.00;;;;;;;15.72;66.06;101187.81;5071754;28;20257;-73
2022/06/14 09:19:31;;;;;;;0.77;0.77;;;;;;;15.79;65.69;101184.56;5071721;28;20179;-73
2022/06/14 09:22:05;;;;;;;2.00;0.20;;;;;;;16.09;66.32;101191.75;5072144;28;20193;-73
2022/06/14 09:25:02;;;;;;;0.00;0.00;;;;;;;16.30;63.58;101189.88;5070639;28;20567;-73
2022/06/14 09:27:58;;;;;;;0.00;0.00;;;;;;;16.25;64.61;101178.22;5037302;28;20210;-72
2022/06/14 09:31:05;;;;;;;1.07;1.07;;;;;;;16.35;65.35;101181.44;5071847;28;20185;-73
2022/06/14 09:33:30;;;;;;;0.10;0.10;;;;;;;16.39;62.91;101178.00;5071787;28;20244;-73
2022/06/14 09:36:17;;;;;;;1.33;0.77;;;;;;;16.23;62.66;101177.75;5071719;28;20530;-72
2022/06/14 09:38:49;;;;;;;0.00;0.00;;;;;;;16.18;63.21;101172.41;5071023;28;20171;-72
2022/06/14 09:41:51;;;;;;;0.00;0.00;;;;;;;16.12;62.77;101176.50;5071621;28;20182;-72
2022/06/14 09:44:19;;;;;;;0.00;0.00;;;;;;;16.06;63.23;101165.66;5071592;28;20188;-73
2022/06/14 09:46:50;;;;;;;0.00;0.00;;;;;;;16.23;59.56;101170.28;5071037;28;20189;-73
2022/06/14 09:49:54;;;;;;;0.20;0.20;;;;;;;16.55;59.36;101171.56;5071071;28;20626;-72
2022/06/14 09:52:32;;;;;;;0.00;0.00;;;;;;;16.92;57.26;101166.31;5071461;28;20630;-73
2022/06/14 09:55:34;;;;;;;0.20;0.20;;;;;;;17.28;57.48;101176.75;5071170;28;20641;-74
2022/06/14 09:58:00;;;;;;;0.00;0.00;;;;;;;17.35;56.17;101177.00;5070732;28;20185;-72
2022/06/14 10:01:02;;;;;;;0.00;0.00;;;;;;;17.20;59.38;101163.81;5071212;28;20175;-72
2022/06/14 10:03:35;;;;;;;0.13;0.13;;;;;;;16.88;60.12;101171.69;5071126;28;20182;-73
2022/06/14 10:06:09;;;;;;;0.00;0.00;;;;;;;16.83;60.65;101177.44;5071456;28;20232;-72
2022/06/14 10:08:58;;;;;;;0.00;0.00;;;;;;;16.88;60.69;101184.69;5070383;28;20181;-73
2022/06/14 10:11:53;;;;;;;2.27;0.30;;;;;;;16.75;61.32;101174.72;5071119;28;20166;-73
2022/06/14 10:14:37;;;;;;;0.10;0.10;;;;;;;16.74;61.78;101175.88;5046933;28;20225;-72
2022/06/14 10:17:08;;;;;;;5.77;0.93;;;;;;;16.59;60.34;101172.53;5069957;28;20554;-72
2022/06/14 10:19:36;;;;;;;0.00;0.00;;;;;;;16.70;62.41;101172.97;5070503;28;20206;-73
2022/06/14 10:22:23;;;;;;;0.00;0.00;;;;;;;16.70;60.25;101170.22;5070830;28;20174;-72
2022/06/14 10:25:35;;;;;;;0.20;0.20;;;;;;;16.68;59.12;101180.78;5069257;28;20592;-72
2022/06/14 10:28:21;;;;;;;0.00;0.00;;;;;;;16.73;60.33;101174.25;5042291;28;20723;-74
2022/06/14 10:31:06;;;;;;;0.00;0.00;;;;;;;16.69;59.60;101165.84;5071402;28;20171;-73
2022/06/14 10:33:43;;;;;;;0.00;0.00;;;;;;;16.25;61.33;101164.44;5070625;28;20170;-72
2022/06/14 10:36:17;;;;;;;0.00;0.00;;;;;;;16.57;62.02;101157.44;5070628;28;20293;-73
2022/06/14 10:38:46;;;;;;;0.20;0.20;;;;;;;17.12;59.19;101159.19;5070067;28;20170;-73
2022/06/14 10:41:24;;;;;;;0.00;0.00;;;;;;;17.57;59.28;101164.78;5070581;28;20650;-73
2022/06/14 10:44:13;;;;;;;0.00;0.00;;;;;;;17.08;56.41;101148.03;5070564;28;20162;-75
2022/06/14 10:46:54;;;;;;;0.00;0.00;;;;;;;17.25;58.30;101145.09;5070176;28;20190;-72
2022/06/14 10:50:04;;;;;;;0.00;0.00;;;;;;;17.56;57.42;101154.88;5070096;28;20548;-74
2022/06/14 10:52:57;;;;;;;0.00;0.00;;;;;;;17.65;55.66;101150.06;5070432;28;20189;-72
2022/06/14 10:55:34;;;;;;;0.27;0.27;;;;;;;17.70;55.49;101143.53;5070341;28;20665;-72
2022/06/14 10:58:31;;;;;;;0.00;0.00;;;;;;;17.40;56.62;101138.13;5069728;28;20618;-73
2022/06/14 11:01:18;;;;;;;0.00;0.00;;;;;;;17.68;56.60;101141.13;5070477;28;20212;-73
2022/06/14 11:04:01;;;;;;;0.27;0.27;;;;;;;17.70;56.83;101147.09;5070445;28;20182;-73
2022/06/14 11:06:58;;;;;;;0.00;0.00;;;;;;;17.90;57.67;101152.88;5070295;28;20173;-74
2022/06/14 11:09:42;;;;;;;0.00;0.00;;;;;;;17.81;57.39;101145.53;5014757;28;20596;-72
2022/06/14 11:12:26;;;;;;;0.00;0.00;;;;;;;17.85;56.88;101153.94;5070287;28;20174;-74
2022/06/14 11:15:09;;;;;;;0.00;0.00;;;;;;;17.02;58.96;101145.78;5070149;28;20212;-72
2022/06/14 11:17:53;;;;;;;0.00;0.00;;;;;;;17.25;58.94;101141.53;5069553;28;20575;-73
2022/06/14 11:20:31;;;;;;;0.00;0.00;;;;;;;17.33;58.30;101145.34;5070243;28;20544;-73
2022/06/14 11:23:11;;;;;;;0.20;0.00;;;;;;;17.55;58.27;101144.97;5070312;28;20177;-72
2022/06/14 11:25:45;;;;;;;0.30;0.30;;;;;;;17.44;57.45;101141.00;5068969;28;20626;-74
2022/06/14 11:28:36;;;;;;;0.00;0.00;;;;;;;17.45;56.07;101142.63;5070058;28;20588;-72
2022/06/14 11:31:17;;;;;;;0.20;0.20;;;;;;;17.50;57.29;101134.09;5074254;28;20253;-72
2022/06/14 11:34:06;;;;;;;0.00;0.00;;;;;;;17.51;56.73;101133.78;5074010;28;20166;-74
2022/06/14 11:36:48;;;;;;;0.00;0.00;;;;;;;17.77;56.63;101144.56;5073827;28;20194;-74
2022/06/14 11:39:32;;;;;;;0.00;0.00;;;;;;;17.89;56.05;101129.97;5073932;28;20245;-73
2022/06/14 11:42:03;;;;;;;0.10;0.10;;;;;;;17.82;56.94;101122.25;5074020;28;20183;-73
2022/06/14 11:44:55;;;;;;;0.03;0.03;;;;;;;18.11;55.82;101126.75;5073935;28;20170;-74
2022/06/14 11:47:37;;;;;;;0.23;0.23;;;;;;;18.44;57.31;101123.06;5073337;28;20190;-73
2022/06/14 11:50:21;;;;;;;0.87;0.87;;;;;;;18.44;55.43;101112.78;5073824;28;20261;-75
2022/06/14 11:52:58;;;;;;;1.30;0.50;;;;;;;18.55;55.10;101124.19;5073700;28;20573;-73
2022/06/14 11:55:26;;;;;;;0.00;0.00;;;;;;;18.44;54.77;101112.78;5073580;28;20244;-73
2022/06/14 11:57:54;;;;;;;7.93;0.60;;;;;;;18.40;55.25;101122.13;5072760;28;20167;-72
2022/06/14 12:00:34;;;;;;;0.47;0.47;;;;;;;18.47;55.60;101111.28;5073621;28;20174;-73
2022/06/14 12:03:23;;;;;;;0.00;0.00;;;;;;;18.62;54.20;101123.59;5073587;28;20211;-73
2022/06/14 12:05:53;;;;;;;0.23;0.10;;;;;;;18.61;53.67;101111.72;5073603;28;20635;-73
2022/06/14 12:08:44;;;;;;;0.00;0.00;;;;;;;18.83;52.88;101112.41;5073020;28;20185;-73
2022/06/14 12:11:34;;;;;;;0.00;0.00;;;;;;;18.47;54.61;101107.72;5070275;28;20210;-72
2022/06/14 12:14:20;;;;;;;0.40;0.40;;;;;;;18.44;55.01;101112.78;5073318;28;20519;-72
2022/06/14 12:16:55;;;;;;;0.47;0.43;;;;;;;18.37;56.79;101114.50;5072964;28;20575;-74
2022/06/14 12:19:31;;;;;;;0.97;0.97;;;;;;;17.99;55.97;101110.16;5073043;28;20181;-72
2022/06/14 12:22:34;;;;;;;0.10;0.10;;;;;;;17.98;56.31;101111.31;5073187;28;20181;-74